Terminal Aerodrome Forecast
Issued by NWS Cleveland, OH

Home | Current Version | Previous Version | Text Only | Print | Product List | Glossary On
Versions: 1 2 3 4 5 6 7 8 9 10 11 12 13 14 15 16 17 18 19 20 21 22
000
FTUS41 KCLE 012300 RRA
TAFCAK
TAF
KCAK 012341Z 0200/0224 12010KT 1 1/2SM -SN OVC006
     FM020300 11010KT 3SM -RASNPL OVC006
      TEMPO 0203/0207 2SM -RAPL
     FM020700 32010KT 3SM -SN OVC006
     FM021500 33015G25KT 2SM BLSN OVC006
     FM021900 33015G25KT 4SM BLSN OVC010=

USA.gov is the U.S. government's official web portal to all federal, state and local government web resources and services.